Flight Track Log - Related Links

Times and Time Zones

All times are in EDT time to prevent confusion due to time zone crossing. See the UAL4553 flight status page for this flight to view local times or setup timezone preferences in your user account.

Time Position Orientation Groundspeed Altitude Reporting Facility
EDT Latitude Longitude Course Direction KTS MPH feet Rate Location/Type
Thu 10:23:33 PM 29.9778 -95.3344 186° South 164 189 700  Level Houston Center
Thu 10:24:34 PM 29.9319 -95.3400 186° South 250 288 2,400 1,914 Climbing Houston Center
Thu 10:25:29 PM 29.9044 -95.2686 114° Southeast 274 315 4,400 1,974 Climbing Houston Center
Thu 10:25:50 PM 29.9000 -95.2483 104° East 269 310 4,900 2,262 Climbing Houston Center
Thu 10:26:30 PM 29.8964 -95.1803 93° East 291 335 6,700 2,164 Climbing Houston Center
Thu 10:26:51 PM 29.9006 -95.1572 78° East 288 331 7,100 1,735 Climbing Houston Center
Thu 10:27:53 PM 29.9108 -95.0611 83° East 298 343 9,100 1,610 Climbing Houston Center
Thu 10:28:54 PM 29.9231 -94.9569 82° East 318 366 10,400 1,171 Climbing Houston Center
Thu 10:29:56 PM 29.9367 -94.8375 82° East 359 413 11,500 1,268 Climbing Houston Center
Thu 10:30:57 PM 29.9497 -94.7158 83° East 377 434 13,000 1,561 Climbing Houston Center
Thu 10:31:59 PM 29.9661 -94.5683 83° East 385 443 14,700 1,317 Climbing Houston Center
Thu 10:33:00 PM 29.9781 -94.4414 84° East 397 457 15,700 976 Climbing Houston Center
Thu 10:34:02 PM 29.9919 -94.3106 83° East 412 474 16,700 976 Climbing Houston Center
Thu 10:35:03 PM 30.0047 -94.1764 84° East 423 487 17,700 976 Climbing Houston Center
Thu 10:36:05 PM 30.0194 -94.0394 83° East 429 494 18,700 976 Climbing Houston Center
Thu 10:37:06 PM 30.0319 -93.9003 84° East 438 504 19,700 976 Climbing Houston Center
Thu 10:38:08 PM 30.0461 -93.7589 83° East 445 512 20,700 976 Climbing Houston Center
Thu 10:39:09 PM 30.0600 -93.6164 84° East 451 519 21,700 1,033 Climbing Houston Center
Thu 10:40:10 PM 30.0747 -93.4575 84° East 456 525 22,800 634 Climbing Houston Center
Thu 10:41:12 PM 30.0886 -93.3106 84° East 464 534 23,000 98 Climbing Houston Center
Thu 10:42:13 PM 30.1019 -93.1544 84° East 490 564 23,000  Level Houston Center
Thu 10:43:15 PM 30.1200 -92.9644 84° East 503 579 23,000 -634 Level Houston Center
Thu 10:44:16 PM 30.1200 -92.8103 90° East 483 556 21,700 -2,607 Descending Houston Center
Thu 10:45:17 PM 30.1031 -92.6742 98° East 436 502 17,700 -4,293 Descending Houston Center
Thu 10:46:19 PM 30.0856 -92.5431 99° East 419 482 12,900 -3,317 Descending Houston Center
Thu 10:47:20 PM 30.0700 -92.4197 98° East 389 448 10,900 -2,016 Descending Houston Center
Thu 10:48:21 PM 30.0575 -92.3244 99° East 316 364 8,800 -2,537 Descending Houston Center
Thu 10:49:23 PM 30.0450 -92.2331 99° East 303 349 5,700 -2,293 Descending Houston Center
Thu 10:50:24 PM 29.9811 -92.1792 144° Southeast 283 326 4,100 -1,574 Descending Houston Center
Thu 10:52:00 PM 30.1064 -92.0722 36° Northeast  Level Estimated
Thu 10:59:00 PM 30.2050 -91.9877 36° Northeast  Level Estimated
Thu 11:00:00 PM 30.2050 -91.9877 210° Southwest  Level Estimated

Login

Don't have an account? Register now (free) for customized features, flight alerts, and more!